createdAt,value
2023-03-21T00:00:33.304Z,4.60
2023-03-21T00:10:41.244Z,4.30
2023-03-21T00:20:52.040Z,4.38
2023-03-21T00:30:53.369Z,4.40
2023-03-21T00:40:55.083Z,4.15
2023-03-21T00:50:57.102Z,3.75
2023-03-21T01:00:58.407Z,4.05
2023-03-21T01:10:59.650Z,3.60
2023-03-21T01:21:01.234Z,3.42
2023-03-21T01:31:02.934Z,3.58
2023-03-21T01:41:08.577Z,3.83
2023-03-21T01:51:16.137Z,3.47
2023-03-21T02:01:18.631Z,4.60
2023-03-21T02:11:19.981Z,4.07
2023-03-21T02:21:21.208Z,4.07
2023-03-21T02:31:22.444Z,4.10
2023-03-21T02:41:25.435Z,4.05
2023-03-21T02:51:28.609Z,4.38
2023-03-21T03:01:29.832Z,3.83
2023-03-21T03:11:31.111Z,4.90
2023-03-21T03:21:32.398Z,4.55
2023-03-21T03:31:33.712Z,5.18
2023-03-21T03:42:02.971Z,7.20
2023-03-21T03:51:58.025Z,5.38
2023-03-21T04:01:59.281Z,6.93
2023-03-21T04:12:00.761Z,5.57
2023-03-21T04:22:01.953Z,6.95
2023-03-21T04:32:03.505Z,8.45
2023-03-21T04:42:04.816Z,7.70
2023-03-21T04:52:06.124Z,6.28
2023-03-21T05:02:07.338Z,8.52
2023-03-21T05:12:08.565Z,7.60
2023-03-21T05:22:09.792Z,8.05
2023-03-21T05:32:10.984Z,10.88
2023-03-21T05:42:12.219Z,9.73
2023-03-21T05:52:13.711Z,9.57
2023-03-21T06:02:15.049Z,10.48
2023-03-21T06:12:16.310Z,11.60
2023-03-21T06:22:17.518Z,13.93
2023-03-21T06:32:18.730Z,12.45
2023-03-21T06:42:19.940Z,12.68
2023-03-21T06:52:21.390Z,13.15
2023-03-21T07:02:22.643Z,11.95
2023-03-21T07:12:23.928Z,10.32
2023-03-21T07:22:25.198Z,9.23
2023-03-21T07:32:29.818Z,8.80
2023-03-21T07:52:33.513Z,8.23
2023-03-21T08:02:34.774Z,7.47
2023-03-21T08:12:36.046Z,6.10
2023-03-21T08:22:37.302Z,6.18
2023-03-21T08:32:38.717Z,6.00
2023-03-21T08:42:40.153Z,6.15
2023-03-21T08:52:41.585Z,5.38
2023-03-21T09:02:42.874Z,5.00
2023-03-21T09:12:44.091Z,6.07
2023-03-21T09:22:45.601Z,4.13
2023-03-21T09:32:48.545Z,3.70
2023-03-21T09:42:49.952Z,3.97
2023-03-21T09:52:51.856Z,3.55
2023-03-21T10:02:56.253Z,4.68
2023-03-21T10:12:58.528Z,3.78
2023-03-21T10:22:59.818Z,3.78
2023-03-21T10:33:02.408Z,3.38
2023-03-21T10:43:03.682Z,3.33
2023-03-21T10:53:05.067Z,4.78
2023-03-21T11:03:06.840Z,3.55
2023-03-21T11:13:08.140Z,3.47
2023-03-21T11:23:09.366Z,4.18
2023-03-21T11:33:10.941Z,3.70
2023-03-21T11:43:12.129Z,3.63
2023-03-21T11:53:14.568Z,4.15
2023-03-21T12:03:15.815Z,3.42
2023-03-21T12:13:17.073Z,3.58
2023-03-21T12:23:18.395Z,2.38
2023-03-21T12:33:19.606Z,1.95
2023-03-21T12:43:20.813Z,2.10
2023-03-21T12:53:22.040Z,2.10
2023-03-21T13:03:33.746Z,2.47
2023-03-21T13:13:40.736Z,2.53
2023-03-21T13:23:41.978Z,2.75
2023-03-21T13:33:44.678Z,3.30
2023-03-21T13:43:46.008Z,2.78
2023-03-21T13:53:47.391Z,3.15
2023-03-21T14:03:48.724Z,2.55
2023-03-21T14:13:51.488Z,1.80
2023-03-21T14:23:53.155Z,2.10
2023-03-21T14:33:54.512Z,1.98
2023-03-21T14:43:55.750Z,2.40
2023-03-21T14:53:57.163Z,2.13
2023-03-21T15:04:00.474Z,2.90
2023-03-21T15:14:01.913Z,2.30
2023-03-21T15:24:03.312Z,2.53
2023-03-21T15:34:04.523Z,3.15
2023-03-21T15:44:05.766Z,2.83
2023-03-21T15:54:07.215Z,8.40
2023-03-21T16:04:08.455Z,2.85
2023-03-21T16:14:10.296Z,3.42
2023-03-21T16:24:12.506Z,3.88
2023-03-21T16:34:13.747Z,3.30
2023-03-21T16:44:14.973Z,2.80
2023-03-21T16:54:16.414Z,4.13
2023-03-21T17:04:17.720Z,2.75
2023-03-21T17:14:21.124Z,4.00
2023-03-21T17:24:23.789Z,5.60
2023-03-21T17:34:25.006Z,3.40
2023-03-21T17:44:26.324Z,2.80
2023-03-21T17:54:27.619Z,3.08
2023-03-21T18:04:28.944Z,2.40
2023-03-21T18:14:30.766Z,2.20
2023-03-21T18:24:32.013Z,2.75
2023-03-21T18:34:33.290Z,4.82
2023-03-21T18:44:38.532Z,6.55
2023-03-21T18:54:40.649Z,5.10
2023-03-21T19:04:42.491Z,4.15
2023-03-21T19:14:43.816Z,6.38
2023-03-21T19:24:45.082Z,8.23
2023-03-21T19:34:46.963Z,7.28
2023-03-21T19:44:48.179Z,6.20
2023-03-21T19:54:49.740Z,6.13
2023-03-21T20:04:51.550Z,6.68
2023-03-21T20:15:01.017Z,7.50
2023-03-21T20:25:11.296Z,6.95
2023-03-21T20:35:20.801Z,7.60
2023-03-21T20:45:28.711Z,7.45
2023-03-21T20:55:37.311Z,7.63
2023-03-21T21:05:38.636Z,4.68
2023-03-21T21:15:39.890Z,8.07
2023-03-21T21:25:41.173Z,8.38
2023-03-21T21:35:47.484Z,7.53
2023-03-21T21:45:48.795Z,8.30
2023-03-21T21:55:51.080Z,9.77
2023-03-21T22:05:52.484Z,8.75
2023-03-21T22:15:53.773Z,8.02
2023-03-21T22:25:55.366Z,10.65
2023-03-21T22:35:56.591Z,7.07
2023-03-21T22:45:57.896Z,7.30
2023-03-21T22:55:59.331Z,4.97
2023-03-21T23:06:01.334Z,6.57
2023-03-21T23:16:02.659Z,6.15
2023-03-21T23:26:03.928Z,6.07
2023-03-21T23:36:05.200Z,5.40
2023-03-21T23:46:06.470Z,5.88
2023-03-21T23:56:07.763Z,8.52
